sensor_id;sensor_type;location;lat;lon;timestamp;pressure;altitude;pressure_sealevel;temperature;humidity
55470;BME280;41334;47.872;16.384;2023-04-19T00:02:21;99279.25;;;7.91;83.69
55470;BME280;41334;47.872;16.384;2023-04-19T00:07:24;99276.97;;;8.03;83.57
55470;BME280;41334;47.872;16.384;2023-04-19T00:12:26;99278.38;;;8.00;82.69
55470;BME280;41334;47.872;16.384;2023-04-19T00:17:28;99266.31;;;7.96;83.02
55470;BME280;41334;47.872;16.384;2023-04-19T00:22:30;99267.13;;;7.97;83.16
55470;BME280;41334;47.872;16.384;2023-04-19T00:27:32;99253.03;;;8.03;83.60
55470;BME280;41334;47.872;16.384;2023-04-19T00:32:33;99251.84;;;8.14;83.38
55470;BME280;41334;47.872;16.384;2023-04-19T00:37:35;99248.59;;;8.07;83.21
55470;BME280;41334;47.872;16.384;2023-04-19T00:42:38;99245.91;;;8.02;82.84
55470;BME280;41334;47.872;16.384;2023-04-19T00:47:40;99247.50;;;8.08;83.32
55470;BME280;41334;47.872;16.384;2023-04-19T00:52:42;99242.31;;;8.02;82.32
55470;BME280;41334;47.872;16.384;2023-04-19T00:57:44;99239.84;;;8.05;83.55
55470;BME280;41334;47.872;16.384;2023-04-19T01:02:47;99228.09;;;7.95;83.22
55470;BME280;41334;47.872;16.384;2023-04-19T01:07:51;99220.44;;;7.86;83.45
55470;BME280;41334;47.872;16.384;2023-04-19T01:12:53;99227.56;;;7.87;83.97
55470;BME280;41334;47.872;16.384;2023-04-19T01:17:55;99208.09;;;7.84;83.30
55470;BME280;41334;47.872;16.384;2023-04-19T01:22:57;99209.47;;;7.81;83.52
55470;BME280;41334;47.872;16.384;2023-04-19T01:28:00;99197.06;;;7.89;83.38
55470;BME280;41334;47.872;16.384;2023-04-19T01:33:02;99206.66;;;7.92;84.16
55470;BME280;41334;47.872;16.384;2023-04-19T01:38:04;99198.44;;;7.86;84.10
55470;BME280;41334;47.872;16.384;2023-04-19T01:43:07;99196.00;;;7.85;84.33
55470;BME280;41334;47.872;16.384;2023-04-19T01:48:09;99195.56;;;7.73;84.32
55470;BME280;41334;47.872;16.384;2023-04-19T01:53:11;99190.00;;;7.78;83.92
55470;BME280;41334;47.872;16.384;2023-04-19T01:58:13;99191.06;;;7.82;84.55
55470;BME280;41334;47.872;16.384;2023-04-19T02:03:15;99188.97;;;7.69;84.41
55470;BME280;41334;47.872;16.384;2023-04-19T02:08:17;99180.75;;;7.64;84.38
55470;BME280;41334;47.872;16.384;2023-04-19T02:13:19;99173.81;;;7.71;83.86
55470;BME280;41334;47.872;16.384;2023-04-19T02:18:21;99172.53;;;7.64;84.31
55470;BME280;41334;47.872;16.384;2023-04-19T02:23:25;99177.13;;;7.73;84.36
55470;BME280;41334;47.872;16.384;2023-04-19T02:28:28;99159.19;;;7.81;83.59
55470;BME280;41334;47.872;16.384;2023-04-19T02:33:30;99167.09;;;7.87;83.89
55470;BME280;41334;47.872;16.384;2023-04-19T02:38:34;99167.03;;;7.64;83.83
55470;BME280;41334;47.872;16.384;2023-04-19T02:43:36;99169.28;;;7.56;84.67
55470;BME280;41334;47.872;16.384;2023-04-19T02:48:37;99166.44;;;7.67;84.93
55470;BME280;41334;47.872;16.384;2023-04-19T02:53:39;99167.69;;;7.84;83.78
55470;BME280;41334;47.872;16.384;2023-04-19T02:58:41;99170.81;;;8.02;82.94
55470;BME280;41334;47.872;16.384;2023-04-19T03:03:43;99160.03;;;8.10;82.97
55470;BME280;41334;47.872;16.384;2023-04-19T03:08:45;99153.66;;;8.15;82.40
55470;BME280;41334;47.872;16.384;2023-04-19T03:13:47;99141.50;;;8.21;82.28
55470;BME280;41334;47.872;16.384;2023-04-19T03:18:49;99140.06;;;8.24;82.53
55470;BME280;41334;47.872;16.384;2023-04-19T03:23:55;99124.94;;;8.26;82.66
55470;BME280;41334;47.872;16.384;2023-04-19T03:28:59;99122.13;;;8.31;82.57
55470;BME280;41334;47.872;16.384;2023-04-19T03:34:19;99115.50;;;8.32;82.61
55470;BME280;41334;47.872;16.384;2023-04-19T03:39:22;99116.00;;;8.39;82.34
55470;BME280;41334;47.872;16.384;2023-04-19T03:44:32;99111.56;;;8.44;82.64
55470;BME280;41334;47.872;16.384;2023-04-19T03:49:36;99105.75;;;8.45;82.07
55470;BME280;41334;47.872;16.384;2023-04-19T03:54:40;99099.53;;;8.58;82.15
55470;BME280;41334;47.872;16.384;2023-04-19T03:59:50;99101.69;;;8.61;81.66
55470;BME280;41334;47.872;16.384;2023-04-19T04:04:53;99111.00;;;8.65;81.28
55470;BME280;41334;47.872;16.384;2023-04-19T04:09:57;99106.00;;;8.68;81.24
55470;BME280;41334;47.872;16.384;2023-04-19T04:14:59;99104.56;;;8.75;81.35
55470;BME280;41334;47.872;16.384;2023-04-19T04:20:02;99099.56;;;8.77;80.63
55470;BME280;41334;47.872;16.384;2023-04-19T04:25:06;99097.03;;;8.81;80.42
55470;BME280;41334;47.872;16.384;2023-04-19T04:30:11;99095.91;;;8.82;80.30
55470;BME280;41334;47.872;16.384;2023-04-19T04:35:14;99092.88;;;8.83;79.96
55470;BME280;41334;47.872;16.384;2023-04-19T04:40:23;99095.56;;;8.88;79.37
55470;BME280;41334;47.872;16.384;2023-04-19T04:45:25;99096.09;;;8.90;79.57
55470;BME280;41334;47.872;16.384;2023-04-19T04:50:27;99092.22;;;8.91;79.93
55470;BME280;41334;47.872;16.384;2023-04-19T04:55:30;99091.91;;;8.93;79.58
55470;BME280;41334;47.872;16.384;2023-04-19T05:00:32;99087.16;;;8.99;79.09
55470;BME280;41334;47.872;16.384;2023-04-19T05:05:38;99083.50;;;9.03;78.81
55470;BME280;41334;47.872;16.384;2023-04-19T05:10:40;99090.06;;;9.07;79.06
55470;BME280;41334;47.872;16.384;2023-04-19T05:15:42;99093.06;;;9.11;79.42
55470;BME280;41334;47.872;16.384;2023-04-19T05:20:44;99083.66;;;9.12;79.28
55470;BME280;41334;47.872;16.384;2023-04-19T05:25:53;99087.22;;;9.12;79.19
55470;BME280;41334;47.872;16.384;2023-04-19T05:31:12;99085.22;;;9.18;78.55
55470;BME280;41334;47.872;16.384;2023-04-19T05:36:25;99078.00;;;9.22;78.66
55470;BME280;41334;47.872;16.384;2023-04-19T05:41:29;99076.56;;;9.25;78.48
55470;BME280;41334;47.872;16.384;2023-04-19T05:46:31;99077.91;;;9.27;79.20
55470;BME280;41334;47.872;16.384;2023-04-19T05:51:34;99065.47;;;9.30;78.94
55470;BME280;41334;47.872;16.384;2023-04-19T05:56:47;99072.59;;;9.31;78.23
55470;BME280;41334;47.872;16.384;2023-04-19T06:01:49;99059.66;;;9.31;78.38
55470;BME280;41334;47.872;16.384;2023-04-19T06:06:51;99068.38;;;9.38;77.82
55470;BME280;41334;47.872;16.384;2023-04-19T06:11:52;99059.31;;;9.52;76.97
55470;BME280;41334;47.872;16.384;2023-04-19T06:16:58;99075.53;;;9.53;77.47
55470;BME280;41334;47.872;16.384;2023-04-19T06:22:00;99061.91;;;9.62;77.77
55470;BME280;41334;47.872;16.384;2023-04-19T06:27:04;99062.88;;;9.85;76.54
55470;BME280;41334;47.872;16.384;2023-04-19T06:32:08;99049.50;;;9.92;76.08
55470;BME280;41334;47.872;16.384;2023-04-19T06:37:09;99044.44;;;10.13;75.34
55470;BME280;41334;47.872;16.384;2023-04-19T06:42:11;99038.41;;;10.25;75.12
55470;BME280;41334;47.872;16.384;2023-04-19T06:47:13;99040.13;;;10.48;74.16
55470;BME280;41334;47.872;16.384;2023-04-19T06:52:15;99041.16;;;10.66;73.19
55470;BME280;41334;47.872;16.384;2023-04-19T06:57:17;99045.28;;;10.91;72.37
55470;BME280;41334;47.872;16.384;2023-04-19T07:02:19;99038.81;;;10.95;72.99
55470;BME280;41334;47.872;16.384;2023-04-19T07:07:22;99044.78;;;11.47;71.76
55470;BME280;41334;47.872;16.384;2023-04-19T07:12:26;99048.47;;;11.43;73.04
55470;BME280;41334;47.872;16.384;2023-04-19T07:17:28;99042.69;;;11.08;74.17
55470;BME280;41334;47.872;16.384;2023-04-19T07:22:30;99042.50;;;10.91;75.56
55470;BME280;41334;47.872;16.384;2023-04-19T07:27:32;99046.50;;;10.98;75.64
55470;BME280;41334;47.872;16.384;2023-04-19T07:32:33;99041.03;;;10.71;75.75
55470;BME280;41334;47.872;16.384;2023-04-19T07:37:36;99042.91;;;10.62;76.30
55470;BME280;41334;47.872;16.384;2023-04-19T07:42:37;99045.06;;;10.51;77.43
55470;BME280;41334;47.872;16.384;2023-04-19T07:47:39;99034.72;;;10.43;77.61
55470;BME280;41334;47.872;16.384;2023-04-19T07:52:41;99035.41;;;10.21;78.75
55470;BME280;41334;47.872;16.384;2023-04-19T07:57:43;99042.25;;;10.10;79.57
55470;BME280;41334;47.872;16.384;2023-04-19T08:02:52;99042.28;;;9.96;80.54
55470;BME280;41334;47.872;16.384;2023-04-19T08:07:55;99034.09;;;9.91;81.23
55470;BME280;41334;47.872;16.384;2023-04-19T08:12:57;99034.28;;;9.81;81.75
55470;BME280;41334;47.872;16.384;2023-04-19T08:18:06;99039.38;;;9.87;80.82
55470;BME280;41334;47.872;16.384;2023-04-19T08:23:08;99038.75;;;9.90;80.28
55470;BME280;41334;47.872;16.384;2023-04-19T08:28:26;99042.38;;;10.05;79.33
55470;BME280;41334;47.872;16.384;2023-04-19T08:33:28;99037.19;;;10.31;79.19
55470;BME280;41334;47.872;16.384;2023-04-19T08:38:29;99037.25;;;10.67;77.14
55470;BME280;41334;47.872;16.384;2023-04-19T08:43:34;99040.03;;;11.03;75.82
55470;BME280;41334;47.872;16.384;2023-04-19T08:48:36;99040.28;;;11.15;76.58
55470;BME280;41334;47.872;16.384;2023-04-19T08:53:39;99034.31;;;11.44;75.07
55470;BME280;41334;47.872;16.384;2023-04-19T08:58:41;99034.91;;;11.33;75.27
55470;BME280;41334;47.872;16.384;2023-04-19T09:03:46;99022.16;;;11.76;74.20
55470;BME280;41334;47.872;16.384;2023-04-19T09:09:22;99019.72;;;11.75;75.09
55470;BME280;41334;47.872;16.384;2023-04-19T09:14:28;99019.91;;;11.78;74.83
55470;BME280;41334;47.872;16.384;2023-04-19T09:19:45;99021.84;;;11.24;79.67
55470;BME280;41334;47.872;16.384;2023-04-19T09:24:47;99015.06;;;11.08;80.63
55470;BME280;41334;47.872;16.384;2023-04-19T09:29:53;99013.41;;;11.30;77.74
55470;BME280;41334;47.872;16.384;2023-04-19T09:34:57;99019.44;;;11.54;76.66
55470;BME280;41334;47.872;16.384;2023-04-19T09:40:00;99021.19;;;11.72;76.36
55470;BME280;41334;47.872;16.384;2023-04-19T09:45:05;99017.66;;;11.58;75.02
55470;BME280;41334;47.872;16.384;2023-04-19T09:50:11;99019.53;;;11.71;76.33
55470;BME280;41334;47.872;16.384;2023-04-19T09:55:25;99029.31;;;12.00;73.01
55470;BME280;41334;47.872;16.384;2023-04-19T10:00:30;99021.28;;;11.90;71.32
55470;BME280;41334;47.872;16.384;2023-04-19T10:05:46;99024.09;;;11.98;72.18
55470;BME280;41334;47.872;16.384;2023-04-19T10:10:49;99031.59;;;11.75;72.57
55470;BME280;41334;47.872;16.384;2023-04-19T10:15:55;99029.47;;;11.72;73.67
55470;BME280;41334;47.872;16.384;2023-04-19T10:21:12;99027.69;;;11.76;73.21
55470;BME280;41334;47.872;16.384;2023-04-19T10:26:16;99025.59;;;11.51;74.84
55470;BME280;41334;47.872;16.384;2023-04-19T10:31:19;99023.59;;;11.43;74.85
55470;BME280;41334;47.872;16.384;2023-04-19T10:36:26;99017.16;;;11.11;76.10
55470;BME280;41334;47.872;16.384;2023-04-19T10:41:57;99021.44;;;10.95;76.42
55470;BME280;41334;47.872;16.384;2023-04-19T10:47:04;99020.88;;;11.07;75.76
55470;BME280;41334;47.872;16.384;2023-04-19T10:52:25;99013.34;;;11.43;73.88
55470;BME280;41334;47.872;16.384;2023-04-19T10:58:00;99016.72;;;11.85;74.33
55470;BME280;41334;47.872;16.384;2023-04-19T11:08:46;99007.75;;;10.40;81.56
55470;BME280;41334;47.872;16.384;2023-04-19T11:13:49;99000.00;;;10.64;80.61
55470;BME280;41334;47.872;16.384;2023-04-19T11:18:53;99000.41;;;11.30;76.43
55470;BME280;41334;47.872;16.384;2023-04-19T11:24:09;98999.53;;;11.74;73.05
55470;BME280;41334;47.872;16.384;2023-04-19T11:29:11;99004.75;;;12.64;69.74
55470;BME280;41334;47.872;16.384;2023-04-19T11:34:14;98990.41;;;12.53;68.13
55470;BME280;41334;47.872;16.384;2023-04-19T11:39:17;98994.25;;;13.82;61.78
55470;BME280;41334;47.872;16.384;2023-04-19T11:44:19;99002.03;;;13.98;64.18
55470;BME280;41334;47.872;16.384;2023-04-19T11:49:28;98992.31;;;13.74;64.31
55470;BME280;41334;47.872;16.384;2023-04-19T11:54:31;98991.44;;;14.29;63.25
55470;BME280;41334;47.872;16.384;2023-04-19T11:59:36;98994.06;;;13.87;63.35
55470;BME280;41334;47.872;16.384;2023-04-19T12:04:38;98988.13;;;12.99;65.47
55470;BME280;41334;47.872;16.384;2023-04-19T12:09:40;98993.06;;;13.10;64.32
55470;BME280;41334;47.872;16.384;2023-04-19T12:14:51;98993.34;;;12.66;62.04
55470;BME280;41334;47.872;16.384;2023-04-19T12:19:53;98994.84;;;12.98;65.65
55470;BME280;41334;47.872;16.384;2023-04-19T12:24:57;98987.31;;;12.81;64.75
55470;BME280;41334;47.872;16.384;2023-04-19T12:29:59;98977.84;;;12.65;66.84
55470;BME280;41334;47.872;16.384;2023-04-19T12:35:01;98977.88;;;12.99;66.00
55470;BME280;41334;47.872;16.384;2023-04-19T12:40:03;98958.22;;;13.65;64.45
55470;BME280;41334;47.872;16.384;2023-04-19T12:45:06;98956.56;;;14.70;61.22
55470;BME280;41334;47.872;16.384;2023-04-19T12:50:08;98954.59;;;14.41;59.61
55470;BME280;41334;47.872;16.384;2023-04-19T12:55:10;98957.09;;;15.38;58.92
55470;BME280;41334;47.872;16.384;2023-04-19T13:00:12;98951.91;;;15.49;58.03
55470;BME280;41334;47.872;16.384;2023-04-19T13:05:14;98948.03;;;15.29;55.00
55470;BME280;41334;47.872;16.384;2023-04-19T13:10:16;98940.53;;;15.09;57.02
55470;BME280;41334;47.872;16.384;2023-04-19T13:15:18;98941.13;;;15.14;55.04
55470;BME280;41334;47.872;16.384;2023-04-19T13:20:20;98951.75;;;15.12;54.61
55470;BME280;41334;47.872;16.384;2023-04-19T13:25:22;98948.28;;;14.02;56.61
55470;BME280;41334;47.872;16.384;2023-04-19T13:30:24;98946.50;;;13.51;59.71
55470;BME280;41334;47.872;16.384;2023-04-19T13:35:26;98948.38;;;12.95;60.88
55470;BME280;41334;47.872;16.384;2023-04-19T13:40:28;98952.09;;;13.16;59.48
55470;BME280;41334;47.872;16.384;2023-04-19T13:45:29;98941.38;;;13.70;58.79
55470;BME280;41334;47.872;16.384;2023-04-19T13:50:31;98934.78;;;13.45;57.75
55470;BME280;41334;47.872;16.384;2023-04-19T13:55:33;98942.91;;;13.59;59.73
55470;BME280;41334;47.872;16.384;2023-04-19T14:00:35;98944.25;;;13.09;57.63
55470;BME280;41334;47.872;16.384;2023-04-19T14:05:37;98938.91;;;12.87;57.50
55470;BME280;41334;47.872;16.384;2023-04-19T14:10:39;98936.63;;;12.80;56.32
55470;BME280;41334;47.872;16.384;2023-04-19T14:15:41;98940.88;;;12.95;57.70
55470;BME280;41334;47.872;16.384;2023-04-19T14:20:43;98919.78;;;13.20;56.62
55470;BME280;41334;47.872;16.384;2023-04-19T14:25:45;98914.34;;;13.50;55.45
55470;BME280;41334;47.872;16.384;2023-04-19T14:30:46;98920.56;;;13.47;54.78
55470;BME280;41334;47.872;16.384;2023-04-19T14:35:48;98916.16;;;13.46;54.18
55470;BME280;41334;47.872;16.384;2023-04-19T14:40:50;98915.38;;;13.19;55.14
55470;BME280;41334;47.872;16.384;2023-04-19T14:45:52;98935.31;;;12.78;54.64
55470;BME280;41334;47.872;16.384;2023-04-19T14:50:54;98932.06;;;12.41;55.36
55470;BME280;41334;47.872;16.384;2023-04-19T14:55:57;98929.75;;;12.26;57.15
55470;BME280;41334;47.872;16.384;2023-04-19T15:01:09;98929.91;;;12.21;57.15
55470;BME280;41334;47.872;16.384;2023-04-19T15:06:11;98933.03;;;12.37;55.10
55470;BME280;41334;47.872;16.384;2023-04-19T15:11:13;98937.59;;;12.50;55.79
55470;BME280;41334;47.872;16.384;2023-04-19T15:16:15;98928.00;;;12.65;55.36
55470;BME280;41334;47.872;16.384;2023-04-19T15:21:20;98931.72;;;12.77;55.73
55470;BME280;41334;47.872;16.384;2023-04-19T15:26:25;98935.47;;;12.55;55.14
55470;BME280;41334;47.872;16.384;2023-04-19T15:31:27;98931.03;;;12.28;57.40
55470;BME280;41334;47.872;16.384;2023-04-19T15:36:29;98924.69;;;11.79;59.08
55470;BME280;41334;47.872;16.384;2023-04-19T15:41:30;98935.16;;;11.60;59.36
55470;BME280;41334;47.872;16.384;2023-04-19T15:46:32;98941.09;;;11.76;58.84
55470;BME280;41334;47.872;16.384;2023-04-19T15:51:34;98939.47;;;11.75;59.78
55470;BME280;41334;47.872;16.384;2023-04-19T15:56:37;98936.91;;;11.47;60.27
55470;BME280;41334;47.872;16.384;2023-04-19T16:01:38;98933.94;;;11.35;61.28
55470;BME280;41334;47.872;16.384;2023-04-19T16:06:40;98943.31;;;11.34;60.71
55470;BME280;41334;47.872;16.384;2023-04-19T16:11:42;98945.41;;;11.28;61.18
55470;BME280;41334;47.872;16.384;2023-04-19T16:16:44;98945.81;;;11.13;62.01
55470;BME280;41334;47.872;16.384;2023-04-19T16:21:46;98943.34;;;11.12;62.09
55470;BME280;41334;47.872;16.384;2023-04-19T16:26:48;98941.41;;;11.12;63.29
55470;BME280;41334;47.872;16.384;2023-04-19T16:31:49;98940.34;;;10.99;63.20
55470;BME280;41334;47.872;16.384;2023-04-19T16:36:52;98942.53;;;11.11;62.53
55470;BME280;41334;47.872;16.384;2023-04-19T16:41:54;98945.13;;;10.85;61.92
55470;BME280;41334;47.872;16.384;2023-04-19T16:46:57;98948.00;;;10.80;63.01
55470;BME280;41334;47.872;16.384;2023-04-19T16:51:58;98952.38;;;10.59;62.80
55470;BME280;41334;47.872;16.384;2023-04-19T16:57:03;98949.19;;;10.29;61.80
55470;BME280;41334;47.872;16.384;2023-04-19T17:02:04;98946.31;;;9.93;63.49
55470;BME280;41334;47.872;16.384;2023-04-19T17:07:08;98958.25;;;9.75;64.63
55470;BME280;41334;47.872;16.384;2023-04-19T17:12:10;98958.94;;;9.53;65.88
55470;BME280;41334;47.872;16.384;2023-04-19T17:17:12;98962.41;;;9.44;66.44
55470;BME280;41334;47.872;16.384;2023-04-19T17:22:14;98966.34;;;9.25;66.72
55470;BME280;41334;47.872;16.384;2023-04-19T17:27:16;98975.47;;;9.06;66.56
55470;BME280;41334;47.872;16.384;2023-04-19T17:32:18;98973.47;;;8.93;66.88
55470;BME280;41334;47.872;16.384;2023-04-19T17:37:20;98986.16;;;8.75;67.26
55470;BME280;41334;47.872;16.384;2023-04-19T17:42:22;98987.63;;;8.68;67.86
55470;BME280;41334;47.872;16.384;2023-04-19T17:47:25;98996.94;;;8.72;68.42
55470;BME280;41334;47.872;16.384;2023-04-19T17:52:27;99013.22;;;8.68;68.78
55470;BME280;41334;47.872;16.384;2023-04-19T17:57:29;99018.22;;;8.66;69.04
55470;BME280;41334;47.872;16.384;2023-04-19T18:02:32;99025.66;;;8.65;69.34
55470;BME280;41334;47.872;16.384;2023-04-19T18:07:35;99029.97;;;8.72;69.01
55470;BME280;41334;47.872;16.384;2023-04-19T18:12:37;99033.03;;;8.70;68.71
55470;BME280;41334;47.872;16.384;2023-04-19T18:17:39;99042.19;;;8.65;69.47
55470;BME280;41334;47.872;16.384;2023-04-19T18:22:41;99043.66;;;8.58;69.69
55470;BME280;41334;47.872;16.384;2023-04-19T18:27:43;99049.19;;;8.58;69.56
55470;BME280;41334;47.872;16.384;2023-04-19T18:32:45;99059.72;;;8.51;69.64
55470;BME280;41334;47.872;16.384;2023-04-19T18:37:47;99050.63;;;8.50;69.98
55470;BME280;41334;47.872;16.384;2023-04-19T18:42:49;99040.38;;;8.37;70.30
55470;BME280;41334;47.872;16.384;2023-04-19T18:47:51;99054.63;;;8.39;70.03
55470;BME280;41334;47.872;16.384;2023-04-19T18:52:53;99047.53;;;8.33;70.63
55470;BME280;41334;47.872;16.384;2023-04-19T18:57:55;99044.03;;;8.27;70.66
55470;BME280;41334;47.872;16.384;2023-04-19T19:02:56;99049.88;;;8.21;70.83
55470;BME280;41334;47.872;16.384;2023-04-19T19:08:01;99048.81;;;8.17;71.14
55470;BME280;41334;47.872;16.384;2023-04-19T19:13:03;99040.94;;;8.10;71.76
55470;BME280;41334;47.872;16.384;2023-04-19T19:18:06;99061.81;;;8.11;71.71
55470;BME280;41334;47.872;16.384;2023-04-19T19:23:08;99063.50;;;8.07;71.74
55470;BME280;41334;47.872;16.384;2023-04-19T19:28:10;99068.75;;;8.03;72.10
55470;BME280;41334;47.872;16.384;2023-04-19T19:33:12;99069.38;;;8.00;71.98
55470;BME280;41334;47.872;16.384;2023-04-19T19:38:14;99076.31;;;7.93;72.10
55470;BME280;41334;47.872;16.384;2023-04-19T19:43:17;99076.59;;;7.91;72.47
55470;BME280;41334;47.872;16.384;2023-04-19T19:48:20;99081.09;;;7.82;72.27
55470;BME280;41334;47.872;16.384;2023-04-19T19:53:21;99082.19;;;7.81;72.22
55470;BME280;41334;47.872;16.384;2023-04-19T19:58:23;99078.16;;;7.73;72.21
55470;BME280;41334;47.872;16.384;2023-04-19T20:03:46;99071.34;;;7.66;72.73
55470;BME280;41334;47.872;16.384;2023-04-19T20:08:48;99074.69;;;7.63;72.66
55470;BME280;41334;47.872;16.384;2023-04-19T20:13:50;99068.41;;;7.57;72.98
55470;BME280;41334;47.872;16.384;2023-04-19T20:18:52;99072.53;;;7.54;72.53
55470;BME280;41334;47.872;16.384;2023-04-19T20:23:56;99073.41;;;7.50;72.89
55470;BME280;41334;47.872;16.384;2023-04-19T20:28:57;99084.13;;;7.51;72.08
55470;BME280;41334;47.872;16.384;2023-04-19T20:33:59;99079.50;;;7.47;72.14
55470;BME280;41334;47.872;16.384;2023-04-19T20:39:01;99087.19;;;7.45;71.89
55470;BME280;41334;47.872;16.384;2023-04-19T20:44:09;99091.09;;;7.39;71.73
55470;BME280;41334;47.872;16.384;2023-04-19T20:49:12;99091.63;;;7.41;71.84
55470;BME280;41334;47.872;16.384;2023-04-19T20:54:14;99086.75;;;7.32;72.74
55470;BME280;41334;47.872;16.384;2023-04-19T20:59:15;99093.38;;;7.26;72.39
55470;BME280;41334;47.872;16.384;2023-04-19T21:04:17;99091.53;;;7.17;73.07
55470;BME280;41334;47.872;16.384;2023-04-19T21:09:20;99092.38;;;7.12;73.49
55470;BME280;41334;47.872;16.384;2023-04-19T21:14:21;99090.78;;;7.06;73.69
55470;BME280;41334;47.872;16.384;2023-04-19T21:19:24;99091.09;;;6.99;74.07
55470;BME280;41334;47.872;16.384;2023-04-19T21:24:25;99089.50;;;6.93;74.55
55470;BME280;41334;47.872;16.384;2023-04-19T21:29:27;99093.09;;;6.89;74.58
55470;BME280;41334;47.872;16.384;2023-04-19T21:34:29;99096.38;;;6.86;74.57
55470;BME280;41334;47.872;16.384;2023-04-19T21:39:31;99096.97;;;6.82;74.61
55470;BME280;41334;47.872;16.384;2023-04-19T21:44:33;99095.84;;;6.83;74.05
55470;BME280;41334;47.872;16.384;2023-04-19T21:49:35;99096.38;;;6.86;74.05
55470;BME280;41334;47.872;16.384;2023-04-19T21:54:37;99096.38;;;6.86;73.79
55470;BME280;41334;47.872;16.384;2023-04-19T21:59:39;99100.25;;;6.85;73.57
55470;BME280;41334;47.872;16.384;2023-04-19T22:04:41;99107.66;;;6.84;73.67
55470;BME280;41334;47.872;16.384;2023-04-19T22:09:43;99114.53;;;6.81;74.08
55470;BME280;41334;47.872;16.384;2023-04-19T22:14:46;99103.84;;;6.80;73.84
55470;BME280;41334;47.872;16.384;2023-04-19T22:19:47;99106.28;;;6.81;73.53
55470;BME280;41334;47.872;16.384;2023-04-19T22:24:49;99107.94;;;6.82;74.08
55470;BME280;41334;47.872;16.384;2023-04-19T22:29:58;99116.19;;;6.82;73.96
55470;BME280;41334;47.872;16.384;2023-04-19T22:34:59;99113.16;;;6.84;73.95
55470;BME280;41334;47.872;16.384;2023-04-19T22:40:05;99112.59;;;6.87;73.71
55470;BME280;41334;47.872;16.384;2023-04-19T22:45:10;99108.75;;;6.88;73.48
55470;BME280;41334;47.872;16.384;2023-04-19T22:50:12;99100.50;;;6.88;73.90
55470;BME280;41334;47.872;16.384;2023-04-19T22:55:13;99102.16;;;6.84;73.78
55470;BME280;41334;47.872;16.384;2023-04-19T23:00:16;99099.16;;;6.80;74.20
55470;BME280;41334;47.872;16.384;2023-04-19T23:05:18;99098.91;;;6.82;73.89
55470;BME280;41334;47.872;16.384;2023-04-19T23:10:20;99094.47;;;6.81;74.41
55470;BME280;41334;47.872;16.384;2023-04-19T23:15:23;99089.56;;;6.83;74.06
55470;BME280;41334;47.872;16.384;2023-04-19T23:20:28;99084.63;;;6.80;74.42
55470;BME280;41334;47.872;16.384;2023-04-19T23:25:30;99085.44;;;6.80;74.27
55470;BME280;41334;47.872;16.384;2023-04-19T23:30:32;99085.16;;;6.82;74.01
55470;BME280;41334;47.872;16.384;2023-04-19T23:35:34;99078.31;;;6.79;73.90
55470;BME280;41334;47.872;16.384;2023-04-19T23:40:36;99067.03;;;6.81;74.07
55470;BME280;41334;47.872;16.384;2023-04-19T23:45:38;99071.47;;;6.77;74.87
55470;BME280;41334;47.872;16.384;2023-04-19T23:50:40;99068.50;;;6.68;75.88
55470;BME280;41334;47.872;16.384;2023-04-19T23:55:42;99058.38;;;6.59;77.17
